createdAt,value
2019-05-05T00:04:29.900Z,56.20
2019-05-05T00:09:34.764Z,56.10
2019-05-05T00:14:37.054Z,56.60
2019-05-05T00:19:40.092Z,56.70
2019-05-05T00:24:44.395Z,56.60
2019-05-05T00:29:47.263Z,56.70
2019-05-05T00:34:49.905Z,57.00
2019-05-05T00:39:54.305Z,56.80
2019-05-05T00:44:56.985Z,56.90
2019-05-05T00:49:59.635Z,57.10
2019-05-05T00:55:04.571Z,57.20
2019-05-05T01:00:16.276Z,57.70
2019-05-05T01:05:18.921Z,57.40
2019-05-05T01:10:21.574Z,57.70
2019-05-05T01:15:25.429Z,57.40
2019-05-05T01:20:28.325Z,57.80
2019-05-05T01:25:31.050Z,57.90
2019-05-05T01:30:35.079Z,57.80
2019-05-05T01:35:37.891Z,57.50
2019-05-05T01:40:40.685Z,57.70
2019-05-05T01:45:45.328Z,57.80
2019-05-05T01:50:48.146Z,58.20
2019-05-05T01:55:51.225Z,58.40
2019-05-05T02:00:54.558Z,58.90
2019-05-05T02:05:57.816Z,59.20
2019-05-05T02:11:00.463Z,59.30
2019-05-05T02:16:04.628Z,59.10
2019-05-05T02:21:07.770Z,58.60
2019-05-05T02:26:10.421Z,58.30
2019-05-05T02:31:16.417Z,58.60
2019-05-05T02:36:17.466Z,58.80
2019-05-05T02:41:20.880Z,58.70
2019-05-05T02:46:25.316Z,58.60
2019-05-05T02:51:28.961Z,58.40
2019-05-05T02:56:34.265Z,58.00
2019-05-05T03:01:37.923Z,58.50
2019-05-05T03:06:43.809Z,58.80
2019-05-05T03:11:49.202Z,58.20
2019-05-05T03:16:54.187Z,58.50
2019-05-05T03:21:57.210Z,58.60
2019-05-05T03:27:00.732Z,58.60
2019-05-05T03:32:05.547Z,59.20
2019-05-05T03:37:08.763Z,59.20
2019-05-05T03:42:13.735Z,59.80
2019-05-05T03:47:16.806Z,60.00
2019-05-05T03:52:19.482Z,60.00
2019-05-05T03:57:22.131Z,59.60
2019-05-05T04:02:24.772Z,60.00
2019-05-05T04:07:27.501Z,60.40
2019-05-05T04:12:30.908Z,60.40
2019-05-05T04:17:33.752Z,59.90
2019-05-05T04:22:36.511Z,59.60
2019-05-05T04:27:39.161Z,59.90
2019-05-05T04:32:43.849Z,59.90
2019-05-05T04:37:46.247Z,60.40
2019-05-05T04:42:48.886Z,60.50
2019-05-05T04:47:53.787Z,60.80
2019-05-05T04:52:55.897Z,60.10
2019-05-05T04:57:58.533Z,60.70
2019-05-05T05:03:01.255Z,60.00
2019-05-05T05:08:03.979Z,60.40
2019-05-05T05:13:06.627Z,59.80
2019-05-05T05:18:09.288Z,60.20
2019-05-05T05:23:14.137Z,60.50
2019-05-05T05:28:17.126Z,60.50
2019-05-05T05:33:19.760Z,60.30
2019-05-05T05:38:24.226Z,60.70
2019-05-05T05:43:26.995Z,60.00
2019-05-05T05:48:29.639Z,59.70
2019-05-05T05:53:32.303Z,60.00
2019-05-05T05:58:34.953Z,60.20
2019-05-05T06:03:37.608Z,59.60
2019-05-05T06:08:40.276Z,60.00
2019-05-05T06:13:44.399Z,59.30
2019-05-05T06:18:47.606Z,59.50
2019-05-05T06:23:50.332Z,60.00
2019-05-05T06:28:54.077Z,59.30
2019-05-05T06:33:57.024Z,59.80
2019-05-05T06:38:59.664Z,59.60
2019-05-05T06:44:03.680Z,60.00
2019-05-05T06:49:06.657Z,60.60
2019-05-05T06:54:09.319Z,60.80
2019-05-05T06:59:13.707Z,59.70
2019-05-05T07:04:16.590Z,58.60
2019-05-05T07:09:19.234Z,58.40
2019-05-05T07:14:23.622Z,57.70
2019-05-05T07:19:26.396Z,57.50
2019-05-05T07:24:29.034Z,57.40
2019-05-05T07:29:31.686Z,57.30
2019-05-05T07:34:34.440Z,58.30
2019-05-05T07:39:37.092Z,57.40
2019-05-05T07:44:39.807Z,56.50
2019-05-05T07:49:44.175Z,56.90
2019-05-05T07:54:47.003Z,56.00
2019-05-05T07:59:49.656Z,54.90
2019-05-05T08:04:54.280Z,55.00
2019-05-05T08:09:56.952Z,53.80
2019-05-05T08:14:59.861Z,54.10
2019-05-05T08:20:04.086Z,53.90
2019-05-05T08:25:07.065Z,53.20
2019-05-05T08:30:09.991Z,52.40
2019-05-05T08:35:14.750Z,52.30
2019-05-05T08:40:17.686Z,51.10
2019-05-05T08:45:39.670Z,52.40
2019-05-05T08:50:43.898Z,51.90
2019-05-05T08:55:46.936Z,51.70
2019-05-05T09:00:49.598Z,51.10
2019-05-05T09:06:13.575Z,50.20
2019-05-05T09:11:15.985Z,49.60
2019-05-05T09:16:18.641Z,48.90
2019-05-05T09:21:21.292Z,48.60
2019-05-05T09:26:24.037Z,49.20
2019-05-05T09:31:26.979Z,48.70
2019-05-05T09:36:29.792Z,48.40
2019-05-05T09:41:34.001Z,48.00
2019-05-05T09:46:39.570Z,48.40
2019-05-05T09:51:41.269Z,47.40
2019-05-05T09:56:44.486Z,47.00
2019-05-05T10:01:47.332Z,46.20
2019-05-05T10:07:09.604Z,45.60
2019-05-05T10:12:12.488Z,46.90
2019-05-05T10:17:15.383Z,47.00
2019-05-05T10:22:18.352Z,47.20
2019-05-05T10:27:21.290Z,46.80
2019-05-05T10:32:25.363Z,48.00
2019-05-05T10:37:28.250Z,45.30
2019-05-05T10:42:31.221Z,45.20
2019-05-05T10:47:34.167Z,45.40
2019-05-05T10:52:37.086Z,44.80
2019-05-05T10:57:43.454Z,43.50
2019-05-05T11:02:46.422Z,40.40
2019-05-05T11:07:50.160Z,40.70
2019-05-05T11:12:53.526Z,43.50
2019-05-05T11:17:56.682Z,44.30
2019-05-05T11:22:59.548Z,46.30
2019-05-05T11:28:03.428Z,49.80
2019-05-05T11:33:06.836Z,51.50
2019-05-05T11:38:09.598Z,52.30
2019-05-05T11:43:14.135Z,52.00
2019-05-05T11:48:16.749Z,51.60
2019-05-05T11:53:19.451Z,48.40
2019-05-05T11:58:24.686Z,48.60
2019-05-05T12:03:26.849Z,44.40
2019-05-05T12:08:29.575Z,42.90
2019-05-05T12:13:32.307Z,42.50
2019-05-05T12:18:35.298Z,42.00
2019-05-05T12:23:37.998Z,42.20
2019-05-05T12:28:40.684Z,42.80
2019-05-05T12:33:44.206Z,38.60
2019-05-05T12:38:47.055Z,38.40
2019-05-05T12:43:49.871Z,36.90
2019-05-05T12:48:54.248Z,36.80
2019-05-05T12:53:57.089Z,38.40
2019-05-05T12:58:59.757Z,37.50
2019-05-05T13:04:03.669Z,37.10
2019-05-05T13:09:07.342Z,38.40
2019-05-05T13:14:10.003Z,41.00
2019-05-05T13:19:14.502Z,50.30
2019-05-05T13:24:17.158Z,53.30
2019-05-05T13:29:19.810Z,56.70
2019-05-05T13:34:22.488Z,56.90
2019-05-05T13:39:25.142Z,55.60
2019-05-05T13:44:27.805Z,57.40
2019-05-05T13:49:30.811Z,55.20
2019-05-05T13:54:33.663Z,54.00
2019-05-05T13:59:36.463Z,55.30
2019-05-05T14:04:39.200Z,53.50
2019-05-05T14:09:44.042Z,50.10
2019-05-05T14:14:46.334Z,49.00
2019-05-05T14:20:01.235Z,44.10
2019-05-05T14:24:53.776Z,42.90
2019-05-05T14:29:56.541Z,41.50
2019-05-05T14:34:59.284Z,42.20
2019-05-05T14:40:04.603Z,42.60
2019-05-05T14:45:07.437Z,44.80
2019-05-05T14:50:10.641Z,45.00
2019-05-05T14:55:14.031Z,45.20
2019-05-05T15:00:17.026Z,45.10
2019-05-05T15:05:19.783Z,46.40
2019-05-05T15:10:24.064Z,45.70
2019-05-05T15:15:26.865Z,43.30
2019-05-05T15:20:29.578Z,37.10
2019-05-05T15:25:34.157Z,36.90
2019-05-05T15:30:36.733Z,37.90
2019-05-05T15:35:39.473Z,39.70
2019-05-05T15:40:44.522Z,40.50
2019-05-05T15:45:47.156Z,41.70
2019-05-05T15:50:49.881Z,42.50
2019-05-05T15:55:54.002Z,46.60
2019-05-05T16:00:56.857Z,50.80
2019-05-05T16:05:59.602Z,50.40
2019-05-05T16:11:03.764Z,50.60
2019-05-05T16:16:06.682Z,49.50
2019-05-05T16:21:09.337Z,51.10
2019-05-05T16:26:13.798Z,51.20
2019-05-05T16:31:16.440Z,50.80
2019-05-05T16:36:19.082Z,50.90
2019-05-05T16:41:23.781Z,50.80
2019-05-05T16:46:26.591Z,49.20
2019-05-05T16:51:29.256Z,46.40
2019-05-05T16:56:33.650Z,41.90
2019-05-05T17:01:36.487Z,34.20
2019-05-05T17:06:39.147Z,33.40
2019-05-05T17:11:43.665Z,32.90
2019-05-05T17:17:05.510Z,34.40
2019-05-05T17:22:08.166Z,31.90
2019-05-05T17:27:10.819Z,32.40
2019-05-05T17:32:13.911Z,31.70
2019-05-05T17:37:16.665Z,32.20
2019-05-05T17:42:19.319Z,31.10
2019-05-05T17:47:21.984Z,34.00
2019-05-05T17:52:24.654Z,36.00
2019-05-05T17:57:27.373Z,37.10
2019-05-05T18:02:30.117Z,38.00
2019-05-05T18:07:34.474Z,39.40
2019-05-05T18:12:37.315Z,40.30
2019-05-05T18:17:40.420Z,40.40
2019-05-05T18:22:43.968Z,41.50
2019-05-05T18:27:46.642Z,42.50
2019-05-05T18:32:49.307Z,43.10
2019-05-05T18:38:11.386Z,43.90
2019-05-05T18:43:14.045Z,44.50
2019-05-05T18:48:16.771Z,45.00
2019-05-05T18:53:19.461Z,45.40
2019-05-05T18:58:29.815Z,45.60
2019-05-05T19:03:26.609Z,46.30
2019-05-05T19:08:31.156Z,46.50
2019-05-05T19:13:34.090Z,47.00
2019-05-05T19:18:36.880Z,47.50
2019-05-05T19:23:39.640Z,47.60
2019-05-05T19:28:47.301Z,48.60
2019-05-05T19:33:46.768Z,48.40
2019-05-05T19:38:49.504Z,48.90
2019-05-05T19:43:54.375Z,48.60
2019-05-05T19:48:56.638Z,49.00
2019-05-05T19:53:59.627Z,48.70
2019-05-05T19:59:04.286Z,48.90
2019-05-05T20:04:06.697Z,49.30
2019-05-05T20:09:09.698Z,49.60
2019-05-05T20:14:14.815Z,50.20
2019-05-05T20:19:16.835Z,50.70
2019-05-05T20:24:19.543Z,51.60
2019-05-05T20:29:24.001Z,51.30
2019-05-05T20:34:26.600Z,51.60
2019-05-05T20:39:29.315Z,52.30
2019-05-05T20:44:34.112Z,52.60
2019-05-05T20:49:36.420Z,53.00
2019-05-05T20:54:39.062Z,52.90
2019-05-05T20:59:41.727Z,53.30
2019-05-05T21:04:44.673Z,52.90
2019-05-05T21:09:47.501Z,53.70
2019-05-05T21:14:50.156Z,53.80
2019-05-05T21:19:52.814Z,53.80
2019-05-05T21:24:55.457Z,53.80
2019-05-05T21:29:58.187Z,53.90
2019-05-05T21:35:00.897Z,54.00
2019-05-05T21:40:04.757Z,54.90
2019-05-05T21:45:07.792Z,54.70
2019-05-05T21:50:10.673Z,54.80
2019-05-05T21:55:13.935Z,54.90
2019-05-05T22:00:18.233Z,55.10
2019-05-05T22:05:20.879Z,55.00
2019-05-05T22:10:24.520Z,55.00
2019-05-05T22:15:27.251Z,55.30
2019-05-05T22:20:29.960Z,55.30
2019-05-05T22:25:34.158Z,56.50
2019-05-05T22:30:36.977Z,56.20
2019-05-05T22:35:39.646Z,55.80
2019-05-05T22:40:44.070Z,55.90
2019-05-05T22:45:46.894Z,56.30
2019-05-05T22:50:49.554Z,56.70
2019-05-05T22:55:52.202Z,56.40
2019-05-05T23:00:55.018Z,56.50
2019-05-05T23:05:57.745Z,56.60
2019-05-05T23:11:00.399Z,56.50
2019-05-05T23:16:04.132Z,57.00
2019-05-05T23:21:07.292Z,56.80
2019-05-05T23:26:09.950Z,57.50
2019-05-05T23:31:15.961Z,57.00
2019-05-05T23:36:16.969Z,56.70
2019-05-05T23:41:19.615Z,56.80
2019-05-05T23:46:24.137Z,57.20
2019-05-05T23:51:26.696Z,57.20
2019-05-05T23:56:29.327Z,56.80
